Time;durP1;ratioP1;P1;durP2;ratioP2;P2;SDS_P1;SDS_P2;PMS_P1;PMS_P2;Temp;Humidity;BMP_temperature;BMP_pressure;BME280_temperature;BME280_humidity;BME280_pressure;Samples;Min_cycle;Max_cycle;Signal;HPM_P1;HPM_P2
2021/12/07 00:00:52;;;;;;;10.00;7.38;;;;;;;2.28;67.17;98884.53;10389448;28;20053;-67
2021/12/07 00:05:55;;;;;;;9.23;6.38;;;;;;;2.48;66.42;98870.78;10389261;28;20103;-67
2021/12/07 00:10:57;;;;;;;7.95;6.00;;;;;;;2.29;66.96;98864.75;10388348;28;20049;-67
2021/12/07 00:15:59;;;;;;;6.28;4.60;;;;;;;2.46;66.48;98864.84;10388611;28;20076;-67
2021/12/07 00:21:01;;;;;;;8.35;6.05;;;;;;;2.67;66.27;98856.13;10388088;28;20049;-67
2021/12/07 00:26:04;;;;;;;9.35;6.30;;;;;;;2.81;65.76;98840.88;10388541;28;20293;-67
2021/12/07 00:31:15;;;;;;;6.68;4.85;;;;;;;2.86;65.76;98839.78;10386361;28;20045;-67
2021/12/07 00:36:17;;;;;;;14.68;7.78;;;;;;;2.93;65.97;98840.28;10387058;28;20144;-67
2021/12/07 00:41:19;;;;;;;11.38;8.30;;;;;;;2.93;66.07;98841.16;10387814;28;20080;-67
2021/12/07 00:46:21;;;;;;;29.15;15.80;;;;;;;2.99;66.06;98842.59;10388314;28;20576;-67
2021/12/07 00:51:22;;;;;;;19.48;11.20;;;;;;;2.85;66.23;98834.66;10387869;28;20169;-67
2021/12/07 00:56:24;;;;;;;10.90;6.70;;;;;;;2.79;66.38;98824.59;10387350;28;20055;-67
2021/12/07 01:01:26;;;;;;;14.90;7.95;;;;;;;2.72;66.97;98830.97;10387621;28;20053;-67
2021/12/07 01:06:33;;;;;;;10.30;6.20;;;;;;;2.47;67.36;98830.38;10386758;28;20056;-66
2021/12/07 01:27:38;;;;;;;7.07;3.60;;;;;;;2.17;68.24;98850.63;10385777;28;20604;-66
2021/12/07 01:43:36;;;;;;;5.13;3.55;;;;;;;1.89;69.03;98865.59;10385004;28;20316;-67
2021/12/07 02:04:18;;;;;;;4.82;3.25;;;;;;;1.79;69.54;98882.31;10384570;28;20065;-67
2021/12/07 02:09:20;;;;;;;3.92;2.53;;;;;;;1.78;69.71;98884.09;10383654;28;20046;-66
2021/12/07 02:14:21;;;;;;;3.60;2.30;;;;;;;1.82;69.74;98877.06;10384640;28;20402;-67
2021/12/07 02:19:24;;;;;;;4.85;1.88;;;;;;;1.84;69.97;98889.00;10383088;28;20056;-67
2021/12/07 02:24:27;;;;;;;3.90;2.00;;;;;;;1.91;70.12;98890.41;10384622;28;20445;-67
2021/12/07 02:29:29;;;;;;;2.88;1.73;;;;;;;2.03;70.09;98907.13;10384451;28;20162;-67
2021/12/07 02:34:31;;;;;;;5.93;2.08;;;;;;;2.00;70.69;98904.66;10384436;28;20053;-66
2021/12/07 02:39:36;;;;;;;5.35;2.75;;;;;;;2.14;70.80;98913.50;10383734;28;20053;-67
2021/12/07 02:44:38;;;;;;;11.02;6.97;;;;;;;2.31;70.76;98915.38;10381301;28;20057;-67
2021/12/07 02:49:40;;;;;;;4.53;1.92;;;;;;;2.45;70.40;98927.69;10383393;28;20123;-66
2021/12/07 02:54:49;;;;;;;4.78;1.95;;;;;;;2.48;70.57;98932.72;10384497;28;20046;-67
2021/12/07 03:00:03;;;;;;;6.32;2.17;;;;;;;2.54;70.49;98935.03;10384541;28;20049;-67
2021/12/07 03:05:20;;;;;;;6.38;1.70;;;;;;;2.60;70.37;98937.34;10390185;28;20049;-67
2021/12/07 03:26:15;;;;;;;7.18;1.80;;;;;;;2.62;70.63;98956.19;10391718;28;20428;-67
2021/12/07 03:31:18;;;;;;;4.55;1.70;;;;;;;2.67;70.49;98974.88;10391460;28;20079;-67
2021/12/07 03:36:20;;;;;;;4.40;1.60;;;;;;;2.74;70.52;98981.47;10391420;28;20486;-67
2021/12/07 03:41:22;;;;;;;3.88;1.60;;;;;;;2.72;70.46;98993.59;10391509;28;20373;-67
2021/12/07 03:46:24;;;;;;;4.68;1.90;;;;;;;2.79;70.19;99006.19;10391156;28;20500;-67
2021/12/07 03:51:26;;;;;;;4.88;1.70;;;;;;;2.71;70.62;99010.00;10391029;28;20045;-67
2021/12/07 03:56:28;;;;;;;8.10;1.95;;;;;;;2.85;70.14;99010.22;10391679;28;20424;-67
2021/12/07 04:01:30;;;;;;;5.55;1.80;;;;;;;2.84;70.46;99029.22;10393209;28;20053;-67
2021/12/07 04:06:32;;;;;;;5.22;1.95;;;;;;;2.89;70.34;99032.44;10393075;28;20534;-66
2021/12/07 04:11:34;;;;;;;5.60;2.10;;;;;;;2.92;69.90;99040.06;10391221;28;20176;-66
2021/12/07 04:16:36;;;;;;;7.20;2.30;;;;;;;2.96;70.17;99039.03;10390924;28;20057;-66
2021/12/07 04:21:37;;;;;;;4.50;2.10;;;;;;;3.01;70.06;99053.41;10391617;28;20168;-67
2021/12/07 04:26:40;;;;;;;7.65;2.08;;;;;;;2.95;70.08;99069.19;10390660;28;20056;-67
2021/12/07 04:31:42;;;;;;;8.45;2.47;;;;;;;2.94;70.10;99075.25;10390535;28;20045;-67
2021/12/07 04:36:43;;;;;;;10.55;2.70;;;;;;;3.08;70.04;99077.25;10390351;28;20054;-67
2021/12/07 04:41:48;;;;;;;11.93;3.05;;;;;;;3.07;70.17;99078.13;10390365;28;20408;-67
2021/12/07 04:47:10;;;;;;;10.13;2.78;;;;;;;3.18;69.91;99078.53;10389782;28;20413;-67
2021/12/07 04:57:43;;;;;;;16.75;3.53;;;;;;;3.19;69.38;99092.28;10389662;28;20458;-67
2021/12/07 05:02:51;;;;;;;13.07;3.60;;;;;;;3.26;69.34;99098.84;10388980;28;20057;-67
2021/12/07 05:07:55;;;;;;;18.85;6.63;;;;;;;3.18;69.19;99109.53;10389481;28;20074;-67
2021/12/07 05:13:25;;;;;;;27.10;12.35;;;;;;;3.21;68.86;99117.16;10388299;28;20456;-67
2021/12/07 05:39:35;;;;;;;15.45;3.55;;;;;;;3.34;68.32;99169.97;10388337;28;20440;-67
2021/12/07 05:44:37;;;;;;;13.30;3.33;;;;;;;3.25;68.26;99172.97;10387720;28;20059;-67
2021/12/07 05:49:38;;;;;;;13.73;3.35;;;;;;;3.25;67.93;99191.06;10387875;28;20216;-67
2021/12/07 05:54:40;;;;;;;19.67;4.18;;;;;;;3.14;68.14;99194.97;10387559;28;20129;-67
2021/12/07 05:59:42;;;;;;;11.73;3.10;;;;;;;3.11;68.20;99203.69;10387498;28;20049;-67
2021/12/07 06:04:44;;;;;;;11.80;3.33;;;;;;;3.21;67.95;99215.34;10388175;28;20049;-67
2021/12/07 06:09:45;;;;;;;15.20;3.83;;;;;;;3.16;68.05;99222.44;10388041;28;20060;-67
2021/12/07 06:14:47;;;;;;;13.80;4.90;;;;;;;3.24;67.81;99230.69;10386140;28;20470;-67
2021/12/07 06:19:50;;;;;;;13.57;4.30;;;;;;;3.36;67.55;99234.50;10385375;28;20128;-67
2021/12/07 06:24:52;;;;;;;15.35;3.58;;;;;;;3.40;67.28;99241.25;10386500;28;20049;-67
2021/12/07 06:29:53;;;;;;;19.52;3.70;;;;;;;3.43;67.31;99257.47;10386557;28;20049;-67
2021/12/07 06:34:55;;;;;;;10.98;2.92;;;;;;;3.47;67.13;99264.19;10386391;28;20492;-67
2021/12/07 06:39:57;;;;;;;14.80;3.47;;;;;;;3.35;67.35;99281.94;10386665;28;20475;-67
2021/12/07 06:44:59;;;;;;;15.65;3.67;;;;;;;3.36;67.26;99288.78;10385446;28;20055;-67
2021/12/07 06:50:04;;;;;;;20.60;3.53;;;;;;;3.24;67.50;99303.06;10384697;28;20512;-67
2021/12/07 06:55:07;;;;;;;16.52;3.83;;;;;;;3.21;67.53;99303.19;10386645;28;20054;-67
2021/12/07 07:00:11;;;;;;;16.33;4.47;;;;;;;3.07;67.65;99314.97;10375954;28;20055;-66
2021/12/07 07:05:13;;;;;;;12.13;3.28;;;;;;;3.11;67.41;99321.69;10378219;28;20046;-66
2021/12/07 07:10:17;;;;;;;13.52;3.88;;;;;;;3.11;67.39;99329.44;10383297;28;20081;-67
2021/12/07 07:15:19;;;;;;;13.25;3.50;;;;;;;3.10;67.42;99331.19;10379443;28;20061;-67
2021/12/07 07:20:21;;;;;;;15.15;4.15;;;;;;;3.18;67.42;99357.56;10379598;28;20046;-66
2021/12/07 07:25:23;;;;;;;10.88;2.95;;;;;;;3.18;67.34;99360.13;10373483;28;20216;-67
2021/12/07 07:30:25;;;;;;;16.08;3.17;;;;;;;3.21;67.45;99348.84;10382375;28;20386;-67
2021/12/07 07:35:27;;;;;;;13.23;3.45;;;;;;;3.19;67.39;99348.06;10385456;28;20461;-67
2021/12/07 07:40:29;;;;;;;12.65;3.15;;;;;;;3.16;67.54;99356.78;10390894;28;20104;-67
2021/12/07 07:45:31;;;;;;;11.80;3.20;;;;;;;3.24;67.30;99374.56;10389395;28;20498;-67
2021/12/07 07:50:33;;;;;;;11.90;2.60;;;;;;;3.18;67.42;99372.22;10391153;28;20054;-67
2021/12/07 07:55:39;;;;;;;10.63;2.78;;;;;;;3.25;67.21;99373.66;10391565;28;20239;-67
2021/12/07 08:00:42;;;;;;;9.93;2.80;;;;;;;3.40;66.83;99375.63;10390984;28;20056;-66
2021/12/07 08:05:44;;;;;;;9.40;2.80;;;;;;;3.47;66.67;99400.34;10389992;28;20054;-67
2021/12/07 08:10:47;;;;;;;10.18;2.75;;;;;;;3.51;66.49;99399.34;10391296;28;20465;-67
2021/12/07 08:15:49;;;;;;;13.48;2.90;;;;;;;3.72;65.88;99406.25;10388973;28;20050;-67
2021/12/07 08:20:51;;;;;;;10.85;3.33;;;;;;;3.69;66.02;99402.03;10391594;28;20141;-67
2021/12/07 08:25:53;;;;;;;12.63;2.80;;;;;;;3.71;65.83;99401.97;10391317;28;20045;-66
2021/12/07 08:30:55;;;;;;;14.20;3.63;;;;;;;3.75;65.85;99408.69;10391278;28;20060;-66
2021/12/07 08:35:57;;;;;;;11.70;3.30;;;;;;;3.75;65.73;99406.97;10390729;28;20046;-66
2021/12/07 08:40:59;;;;;;;12.70;4.55;;;;;;;3.77;65.81;99409.47;10390142;28;20060;-66
2021/12/07 08:46:02;;;;;;;13.77;3.42;;;;;;;3.97;65.60;99412.13;10389860;28;20566;-66
2021/12/07 08:51:05;;;;;;;12.23;3.00;;;;;;;4.10;65.48;99405.53;10390222;28;20132;-66
2021/12/07 09:01:28;;;;;;;13.05;4.70;;;;;;;4.09;65.03;99416.78;10390325;28;20052;-66
2021/12/07 09:06:31;;;;;;;14.48;5.10;;;;;;;4.20;64.87;99427.53;10389945;28;20053;-67
2021/12/07 09:11:33;;;;;;;12.68;4.53;;;;;;;4.32;64.57;99439.97;10389772;28;20557;-66
2021/12/07 09:16:35;;;;;;;10.95;3.47;;;;;;;4.35;64.44;99426.88;10389286;28;20064;-66
2021/12/07 09:21:37;;;;;;;12.80;3.83;;;;;;;4.15;64.67;99444.16;10388894;28;20150;-66
2021/12/07 09:26:39;;;;;;;11.40;3.08;;;;;;;4.24;64.49;99454.97;10384670;28;20065;-66
2021/12/07 09:31:41;;;;;;;13.30;3.50;;;;;;;4.25;64.14;99451.47;10384587;28;20519;-66
2021/12/07 09:36:44;;;;;;;10.55;2.97;;;;;;;4.17;64.48;99458.72;10385914;28;20409;-66
2021/12/07 09:41:49;;;;;;;13.18;3.40;;;;;;;4.16;64.34;99462.22;10383373;28;20433;-66
2021/12/07 09:46:51;;;;;;;13.50;3.30;;;;;;;4.13;64.43;99467.50;10380014;28;20069;-66
2021/12/07 09:51:53;;;;;;;20.25;3.15;;;;;;;4.33;64.06;99458.94;10385931;28;20079;-66
2021/12/07 09:56:54;;;;;;;10.60;2.60;;;;;;;4.26;64.08;99470.44;10386517;28;20049;-66
2021/12/07 10:01:56;;;;;;;11.85;2.70;;;;;;;4.25;64.24;99459.22;10368370;28;20058;-66
2021/12/07 10:07:00;;;;;;;7.93;2.70;;;;;;;4.46;63.20;99450.56;10386431;28;20076;-66
2021/12/07 10:12:02;;;;;;;10.57;2.72;;;;;;;4.44;63.15;99464.47;10386964;28;20154;-74
2021/12/07 10:17:04;;;;;;;10.60;3.03;;;;;;;4.47;63.08;99466.97;10386683;28;20081;-74
2021/12/07 10:22:13;;;;;;;12.27;3.30;;;;;;;4.52;62.49;99450.31;10385725;28;20057;-74
2021/12/07 10:27:39;;;;;;;15.65;6.10;;;;;;;4.49;62.22;99462.56;10386915;28;20492;-74
2021/12/07 10:32:40;;;;;;;31.13;6.53;;;;;;;4.72;62.27;99446.03;10386629;28;20764;-74
2021/12/07 10:37:42;;;;;;;10.40;2.60;;;;;;;4.97;61.83;99444.03;10385386;28;20050;-74
2021/12/07 10:42:47;;;;;;;12.93;3.53;;;;;;;5.16;61.19;99434.53;10386117;28;20080;-73
2021/12/07 10:47:48;;;;;;;12.38;3.28;;;;;;;5.33;61.07;99430.22;10385984;28;20059;-73
2021/12/07 10:52:50;;;;;;;13.85;2.92;;;;;;;5.27;60.74;99421.88;10385579;28;20053;-73
2021/12/07 10:58:04;;;;;;;11.82;2.90;;;;;;;5.19;60.25;99416.22;10385789;28;20060;-74
2021/12/07 11:03:09;;;;;;;10.80;2.53;;;;;;;4.97;60.79;99410.34;10385462;28;20151;-74
2021/12/07 11:08:11;;;;;;;10.93;2.47;;;;;;;4.90;60.71;99425.34;10385802;28;20140;-73
2021/12/07 11:13:25;;;;;;;9.82;2.20;;;;;;;4.63;60.41;99427.41;10392990;28;20132;-74
2021/12/07 11:18:38;;;;;;;9.60;2.20;;;;;;;4.52;59.94;99421.81;10393139;28;20549;-72
2021/12/07 11:23:45;;;;;;;13.13;2.65;;;;;;;4.40;60.71;99419.78;10394680;28;20485;-73
2021/12/07 11:34:32;;;;;;;9.65;2.28;;;;;;;4.53;60.09;99420.94;10393011;28;20050;-72
2021/12/07 11:39:38;;;;;;;9.70;2.58;;;;;;;4.77;58.98;99403.47;10393199;28;20520;-73
2021/12/07 11:44:51;;;;;;;11.38;2.50;;;;;;;4.95;58.26;99399.19;10392436;28;20057;-74
2021/12/07 11:49:52;;;;;;;12.40;2.50;;;;;;;5.12;58.80;99400.13;10392480;28;20060;-73
2021/12/07 11:54:54;;;;;;;12.32;2.53;;;;;;;5.52;58.16;99386.13;10392689;28;20161;-73
2021/12/07 11:59:56;;;;;;;9.68;2.45;;;;;;;5.49;56.84;99379.31;10392138;28;20049;-73
2021/12/07 12:04:58;;;;;;;10.25;2.60;;;;;;;5.37;56.65;99379.09;10392431;28;20053;-72
2021/12/07 12:09:59;;;;;;;18.48;3.10;;;;;;;5.30;57.16;99368.16;10392059;28;20059;-74
2021/12/07 12:15:05;;;;;;;11.52;2.42;;;;;;;5.15;56.75;99358.50;10392292;28;20089;-73
2021/12/07 12:20:38;;;;;;;11.75;2.20;;;;;;;4.99;55.79;99351.50;10390826;28;20507;-72
2021/12/07 12:25:40;;;;;;;10.98;2.50;;;;;;;5.04;57.30;99352.16;10391602;28;20049;-73
2021/12/07 12:30:44;;;;;;;7.47;2.33;;;;;;;5.21;56.10;99347.00;10391303;28;20053;-73
2021/12/07 12:35:52;;;;;;;14.90;2.90;;;;;;;5.37;55.29;99328.06;10390896;28;20049;-72
2021/12/07 12:40:55;;;;;;;11.30;2.63;;;;;;;5.57;55.36;99328.84;10390994;28;20081;-73
2021/12/07 12:46:02;;;;;;;9.77;2.17;;;;;;;5.80;54.27;99318.19;10390018;28;20144;-73
2021/12/07 12:51:06;;;;;;;9.55;2.00;;;;;;;6.12;54.17;99320.00;10390797;28;20046;-74
2021/12/07 12:56:30;;;;;;;8.27;2.17;;;;;;;6.25;53.61;99314.09;10389973;28;20060;-73
2021/12/07 13:01:41;;;;;;;8.38;2.72;;;;;;;6.20;52.88;99300.50;10389929;28;20053;-74
2021/12/07 13:06:51;;;;;;;6.38;1.85;;;;;;;6.26;53.14;99304.56;10389874;28;20060;-73
2021/12/07 13:12:03;;;;;;;11.40;2.20;;;;;;;6.07;52.49;99302.03;10387302;28;20461;-74
2021/12/07 13:17:29;;;;;;;9.20;2.03;;;;;;;5.74;52.41;99306.34;10388711;28;20338;-73
2021/12/07 13:22:35;;;;;;;9.85;2.08;;;;;;;5.43;53.72;99301.81;10388779;28;20051;-73
2021/12/07 13:27:37;;;;;;;8.25;2.03;;;;;;;5.21;54.26;99296.00;10388111;28;20049;-73
2021/12/07 13:33:05;;;;;;;8.70;1.90;;;;;;;5.19;53.92;99303.00;10387554;28;20405;-73
2021/12/07 13:38:23;;;;;;;9.80;2.03;;;;;;;5.46;53.30;99293.91;10388302;28;20063;-72
2021/12/07 13:43:34;;;;;;;14.02;2.20;;;;;;;5.49;53.67;99290.34;10388247;28;20045;-73
2021/12/07 13:48:36;;;;;;;7.68;2.10;;;;;;;5.61;54.35;99286.28;10388058;28;20498;-73
2021/12/07 13:53:41;;;;;;;11.05;2.67;;;;;;;5.63;53.92;99274.91;10387828;28;20053;-73
2021/12/07 13:58:51;;;;;;;7.32;2.03;;;;;;;5.65;54.03;99267.91;10387543;28;20401;-73
2021/12/07 14:03:53;;;;;;;8.98;2.33;;;;;;;5.69;53.93;99259.06;10388117;28;20053;-73
2021/12/07 14:09:10;;;;;;;7.95;2.40;;;;;;;5.60;53.56;99256.91;10385748;28;20140;-72
2021/12/07 14:14:14;;;;;;;8.70;2.60;;;;;;;5.64;54.00;99245.47;10384060;28;20050;-71
2021/12/07 14:19:18;;;;;;;7.75;3.30;;;;;;;5.59;54.62;99229.31;10385353;28;20132;-71
2021/12/07 14:24:21;;;;;;;11.98;3.22;;;;;;;5.52;54.66;99218.41;10384972;28;20049;-72
2021/12/07 14:29:25;;;;;;;10.77;3.80;;;;;;;5.53;55.65;99216.66;10385977;28;20130;-71
2021/12/07 14:34:32;;;;;;;9.18;2.72;;;;;;;5.52;54.70;99191.63;10386030;28;20037;-72
2021/12/07 14:39:40;;;;;;;10.70;3.25;;;;;;;5.42;55.15;99193.00;10385758;28;20387;-71
2021/12/07 14:44:46;;;;;;;9.15;2.60;;;;;;;5.37;54.95;99188.03;10385007;28;20053;-71
2021/12/07 14:49:52;;;;;;;10.75;3.20;;;;;;;5.28;55.63;99183.31;10385267;28;20593;-72
2021/12/07 14:54:55;;;;;;;6.90;2.45;;;;;;;5.21;55.88;99176.75;10385250;28;20056;-72
2021/12/07 15:00:01;;;;;;;9.35;2.25;;;;;;;4.93;54.88;99171.25;10384927;28;20060;-72
2021/12/07 15:05:07;;;;;;;6.78;2.88;;;;;;;4.94;55.96;99161.75;10399456;28;20198;-71
2021/12/07 15:10:13;;;;;;;12.77;2.30;;;;;;;4.94;55.81;99151.38;10383910;28;20401;-72
2021/12/07 15:15:16;;;;;;;9.27;2.45;;;;;;;4.79;55.24;99150.38;10385024;28;20148;-70
2021/12/07 15:20:17;;;;;;;9.60;2.15;;;;;;;4.43;55.39;99155.53;10383997;28;20576;-71
2021/12/07 15:25:19;;;;;;;8.63;2.42;;;;;;;4.35;55.73;99160.25;10384477;28;20514;-72
2021/12/07 15:30:21;;;;;;;6.55;2.20;;;;;;;4.40;56.96;99155.72;10384342;28;20216;-71
2021/12/07 15:35:25;;;;;;;5.28;2.17;;;;;;;4.57;57.40;99149.75;10385359;28;20045;-70
2021/12/07 15:40:27;;;;;;;10.95;3.25;;;;;;;4.61;56.79;99144.34;10384068;28;20437;-71
2021/12/07 15:45:29;;;;;;;9.93;3.38;;;;;;;4.57;56.36;99127.28;10384269;28;20413;-71
2021/12/07 15:50:33;;;;;;;10.13;2.63;;;;;;;4.49;55.50;99105.25;10384800;28;20049;-72
2021/12/07 15:55:41;;;;;;;10.48;2.60;;;;;;;4.20;55.41;99101.47;10385031;28;20443;-71
2021/12/07 16:00:51;;;;;;;6.35;2.40;;;;;;;3.94;55.83;99088.91;10391741;28;20095;-72
2021/12/07 16:05:56;;;;;;;10.38;2.63;;;;;;;3.62;56.59;99068.81;10389483;28;20053;-68
2021/12/07 16:11:04;;;;;;;8.80;2.70;;;;;;;3.43;57.02;99060.19;10391424;28;20058;-67
2021/12/07 16:16:17;;;;;;;10.45;2.80;;;;;;;3.30;57.21;99043.53;10389567;28;20050;-68
2021/12/07 16:21:19;;;;;;;10.18;3.08;;;;;;;3.14;57.65;99038.22;10385400;28;20311;-68
2021/12/07 16:26:22;;;;;;;9.65;2.25;;;;;;;3.08;57.95;99035.91;10379723;28;20077;-68
2021/12/07 16:31:27;;;;;;;14.63;3.80;;;;;;;2.99;58.40;99038.88;10386470;28;20041;-68
2021/12/07 16:36:29;;;;;;;13.10;4.18;;;;;;;2.91;58.49;99033.22;10388520;28;20092;-69
2021/12/07 16:41:31;;;;;;;9.55;3.95;;;;;;;2.88;58.89;99020.44;10388471;28;20041;-68
2021/12/07 16:46:34;;;;;;;11.32;3.60;;;;;;;2.90;58.86;99022.06;10388191;28;20093;-68
2021/12/07 16:51:36;;;;;;;12.40;3.50;;;;;;;2.90;59.18;99018.63;10386871;28;20794;-68
2021/12/07 16:56:38;;;;;;;14.35;3.60;;;;;;;2.90;59.14;99009.16;10388232;28;20594;-68
2021/12/07 17:01:40;;;;;;;8.80;3.60;;;;;;;2.86;59.81;98999.88;10387723;28;20053;-68
2021/12/07 17:06:42;;;;;;;14.13;3.90;;;;;;;2.92;60.20;98994.44;10383082;28;20053;-68
2021/12/07 17:11:45;;;;;;;13.00;4.28;;;;;;;2.96;60.38;98982.22;10386753;28;20049;-68
2021/12/07 17:16:48;;;;;;;10.63;3.30;;;;;;;3.00;60.42;98994.09;10387498;28;20232;-68
2021/12/07 17:21:50;;;;;;;13.68;4.10;;;;;;;3.04;60.42;98980.13;10384111;28;20841;-68
2021/12/07 17:26:52;;;;;;;15.27;4.32;;;;;;;3.20;60.50;98981.13;10375431;28;20049;-68
2021/12/07 17:31:55;;;;;;;32.42;16.08;;;;;;;3.33;60.18;98974.50;10385675;28;20859;-68
2021/12/07 17:36:57;;;;;;;16.10;5.38;;;;;;;3.30;60.00;98976.38;10386919;28;20049;-68
2021/12/07 17:41:59;;;;;;;15.73;5.15;;;;;;;3.20;60.41;98964.78;10386733;28;20045;-68
2021/12/07 17:47:01;;;;;;;15.90;4.60;;;;;;;3.28;60.17;98949.75;10384616;28;20386;-68
2021/12/07 17:52:04;;;;;;;13.20;5.88;;;;;;;3.09;60.19;98934.25;10385970;28;20675;-69
2021/12/07 17:57:09;;;;;;;16.42;5.75;;;;;;;2.84;60.62;98931.97;10386693;28;20128;-68
2021/12/07 18:02:10;;;;;;;14.23;5.68;;;;;;;2.70;60.99;98905.06;10386014;28;20049;-68
2021/12/07 18:07:12;;;;;;;13.75;6.07;;;;;;;2.61;61.68;98900.28;10383701;28;20053;-68
2021/12/07 18:12:14;;;;;;;16.33;5.90;;;;;;;2.59;61.36;98899.53;10385814;28;20719;-69
2021/12/07 18:17:36;;;;;;;14.18;6.65;;;;;;;2.44;61.93;98885.53;10384352;28;20057;-69
2021/12/07 18:22:39;;;;;;;16.95;7.20;;;;;;;2.28;62.15;98869.06;10385072;28;20152;-69
2021/12/07 18:27:41;;;;;;;20.08;8.25;;;;;;;2.20;62.65;98853.91;10382681;28;20642;-68
2021/12/07 18:32:43;;;;;;;15.90;7.63;;;;;;;2.21;62.80;98845.25;10385437;28;20140;-68
2021/12/07 18:37:45;;;;;;;21.40;10.07;;;;;;;2.33;62.86;98828.44;10385989;28;20056;-68
2021/12/07 18:42:47;;;;;;;17.50;9.35;;;;;;;2.38;62.82;98831.63;10385026;28;20045;-69
2021/12/07 18:47:49;;;;;;;19.00;8.00;;;;;;;2.38;62.94;98813.56;10385329;28;20140;-69
2021/12/07 18:52:51;;;;;;;13.20;6.40;;;;;;;2.38;63.13;98800.66;10384460;28;20042;-68
2021/12/07 18:57:53;;;;;;;18.63;6.65;;;;;;;2.49;63.18;98800.19;10384658;28;20149;-68
2021/12/07 19:02:55;;;;;;;16.55;5.03;;;;;;;2.60;63.23;98775.56;10383606;28;20059;-68
2021/12/07 19:07:57;;;;;;;11.98;4.55;;;;;;;2.71;63.02;98770.75;10384446;28;20049;-68
2021/12/07 19:12:59;;;;;;;15.95;5.63;;;;;;;2.60;63.18;98757.50;10375409;28;20592;-68
2021/12/07 19:18:02;;;;;;;16.75;5.03;;;;;;;2.53;63.30;98735.47;10379809;28;20152;-68
2021/12/07 19:23:06;;;;;;;13.38;3.70;;;;;;;2.56;63.65;98717.25;10380409;28;20132;-68
2021/12/07 19:28:07;;;;;;;13.43;3.58;;;;;;;2.70;63.46;98686.47;10384749;28;20056;-68
2021/12/07 19:33:10;;;;;;;12.00;3.25;;;;;;;2.72;63.37;98676.94;10385515;28;20045;-68
2021/12/07 19:38:16;;;;;;;12.07;3.30;;;;;;;2.83;62.93;98692.72;10393485;28;20144;-68
2021/12/07 19:43:19;;;;;;;11.43;3.10;;;;;;;2.89;62.63;98671.78;10390450;28;20046;-69
2021/12/07 19:48:23;;;;;;;12.27;3.30;;;;;;;2.89;62.47;98648.53;10390572;28;20524;-69
2021/12/07 19:53:28;;;;;;;12.55;3.05;;;;;;;2.94;62.13;98623.34;10392295;28;20416;-68
2021/12/07 19:58:31;;;;;;;11.10;2.90;;;;;;;3.07;61.47;98613.19;10391394;28;20049;-68
2021/12/07 20:03:34;;;;;;;13.27;3.10;;;;;;;3.20;60.79;98600.50;10389032;28;20053;-68
2021/12/07 20:08:36;;;;;;;10.50;2.58;;;;;;;3.29;60.54;98592.28;10389704;28;20569;-68
2021/12/07 20:13:40;;;;;;;7.75;2.40;;;;;;;3.33;60.02;98571.41;10390485;28;20054;-68
2021/12/07 20:18:43;;;;;;;7.82;2.40;;;;;;;3.37;59.80;98570.31;10390416;28;20057;-68
2021/12/07 20:23:48;;;;;;;7.13;2.40;;;;;;;3.39;59.15;98549.56;10389661;28;20060;-68
2021/12/07 20:28:52;;;;;;;8.60;2.40;;;;;;;3.30;59.33;98527.63;10389809;28;20830;-68
2021/12/07 20:33:55;;;;;;;12.43;2.50;;;;;;;3.38;59.23;98493.59;10390543;28;20148;-68
2021/12/07 20:38:57;;;;;;;12.82;3.20;;;;;;;3.31;59.29;98475.03;10390079;28;20140;-68
2021/12/07 20:44:01;;;;;;;8.40;2.72;;;;;;;3.22;59.13;98454.84;10389005;28;20058;-68
2021/12/07 20:49:03;;;;;;;7.82;3.33;;;;;;;3.17;59.26;98449.13;10386834;28;20053;-69
2021/12/07 20:54:05;;;;;;;8.30;2.63;;;;;;;3.17;59.45;98480.09;10387000;28;20053;-68
2021/12/07 20:59:08;;;;;;;10.57;2.85;;;;;;;3.30;59.38;98475.09;10387438;28;20042;-68
2021/12/07 21:04:12;;;;;;;11.27;2.65;;;;;;;3.23;59.82;98484.94;10387485;28;20453;-68
2021/12/07 21:09:20;;;;;;;7.30;2.38;;;;;;;3.20;59.76;98484.25;10388098;28;20103;-69
2021/12/07 21:14:42;;;;;;;12.73;2.78;;;;;;;3.28;59.55;98474.34;10387513;28;20619;-68
2021/12/07 21:19:44;;;;;;;8.88;2.10;;;;;;;3.24;59.19;98460.78;10386192;28;20080;-68
2021/12/07 21:24:46;;;;;;;9.57;2.25;;;;;;;3.35;58.68;98449.88;10387111;28;20044;-69
2021/12/07 21:29:48;;;;;;;6.97;2.20;;;;;;;3.40;58.12;98440.09;10388679;28;20088;-68
2021/12/07 21:34:49;;;;;;;9.40;3.30;;;;;;;3.53;58.54;98441.09;10385805;28;20064;-68
2021/12/07 21:39:51;;;;;;;7.95;2.30;;;;;;;3.51;58.02;98435.19;10380421;28;20197;-68
2021/12/07 21:44:53;;;;;;;6.43;2.08;;;;;;;3.56;57.77;98426.25;10381847;28;20501;-67
2021/12/07 21:49:55;;;;;;;7.30;2.30;;;;;;;3.44;57.53;98447.59;10381515;28;20196;-68
2021/12/07 21:54:56;;;;;;;6.80;2.10;;;;;;;3.43;57.87;98450.28;10381568;28;20068;-68
2021/12/07 21:59:58;;;;;;;8.60;2.00;;;;;;;3.46;57.68;98440.59;10385200;28;20477;-68
2021/12/07 22:05:00;;;;;;;8.98;2.38;;;;;;;3.54;57.39;98424.66;10384084;28;20059;-68
2021/12/07 22:10:05;;;;;;;5.70;2.22;;;;;;;3.62;57.08;98414.75;10384878;28;20087;-68
2021/12/07 22:15:09;;;;;;;5.78;2.08;;;;;;;3.66;56.88;98393.00;10383672;28;20049;-68
2021/12/07 22:20:13;;;;;;;7.55;2.53;;;;;;;3.64;56.84;98376.75;10380072;28;20350;-67
2021/12/07 22:25:15;;;;;;;7.82;2.40;;;;;;;3.60;56.97;98365.72;10384309;28;20049;-67
2021/12/07 22:30:17;;;;;;;7.13;2.40;;;;;;;3.59;57.01;98325.28;10384185;28;20047;-68
2021/12/07 22:35:20;;;;;;;8.50;2.50;;;;;;;3.45;57.65;98283.06;10381899;28;20293;-68
2021/12/07 22:40:22;;;;;;;7.88;2.45;;;;;;;3.33;57.99;98245.00;10378621;28;20135;-68
2021/12/07 22:45:24;;;;;;;7.07;2.60;;;;;;;3.26;57.73;98234.19;10382215;28;20120;-68
2021/12/07 22:50:26;;;;;;;8.13;2.85;;;;;;;3.17;58.03;98228.72;10383279;28;20356;-67
2021/12/07 22:55:29;;;;;;;11.00;2.50;;;;;;;3.30;58.16;98232.25;10382880;28;20046;-68
2021/12/07 23:00:53;;;;;;;7.68;2.78;;;;;;;3.28;57.24;98241.84;10381531;28;20068;-68
2021/12/07 23:05:56;;;;;;;6.82;2.60;;;;;;;3.45;57.44;98247.72;10382198;28;20049;-67
2021/12/07 23:11:06;;;;;;;7.55;2.70;;;;;;;3.59;57.65;98254.66;10382195;28;20575;-68
2021/12/07 23:16:08;;;;;;;7.90;3.17;;;;;;;3.52;57.53;98268.84;10381946;28;20144;-68
2021/12/07 23:21:14;;;;;;;9.25;2.78;;;;;;;3.52;57.89;98279.19;10383362;28;20331;-68
2021/12/07 23:26:16;;;;;;;5.68;2.58;;;;;;;3.53;57.80;98268.78;10382815;28;20057;-68
2021/12/07 23:31:18;;;;;;;8.73;2.80;;;;;;;3.43;58.60;98262.47;10382197;28;20525;-68
2021/12/07 23:36:20;;;;;;;7.75;2.90;;;;;;;3.50;58.32;98250.00;10381731;28;20075;-67
2021/12/07 23:41:23;;;;;;;7.63;2.97;;;;;;;3.30;58.81;98217.59;10381903;28;20501;-67
2021/12/07 23:46:25;;;;;;;10.02;2.78;;;;;;;3.17;59.51;98195.13;10381444;28;20144;-67
2021/12/07 23:51:27;;;;;;;9.65;3.03;;;;;;;3.02;60.33;98218.34;10382775;28;20045;-67
2021/12/07 23:56:29;;;;;;;9.73;2.63;;;;;;;2.96;61.16;98221.25;10381979;28;20053;-67
